Algona, Washington
Current Conditions -  °F | °C
As of 8:53 PM on Friday 24 Oct 2014 (Local Time) from KSEA Reporting Station
Light Rain Light Rain  
Wind Chill: 12°   Ceiling: 6500
Heat Index: 12°   Visibility: 10mi
Dew Point:   Wind: 7mph
Humidity: 80%   Direction: 50°NE
Pressure: 29.85"   Gusts: NA
Location:  47.31°N, 122.266°W
Report Text: KSEA 250353Z 05006KT 10SM -RA OVC065 12/08 A2985 RMK AO2 SLP114 P0003 T01170083
Loading
Personal Weather Stations






























Interactive Weather Map
Tropical Storm Tracking
New forecast layout! Learn more

10-Day Weather Forecast

Advertisements
Track Severe Weather on mobile